AirNav   ProFlight Series 2 Aviation Headset
 
 437 users online  

4PN7 Merritt Field Airport
Eagles Mere, Pennsylvania, USA

GOING TO EAGLES MERE?


FAA INFORMATION EFFECTIVE 13 AUGUST 2020

Location

FAA Identifier: 4PN7
Lat/Long: 41-25-15.2800N 076-32-03.8100W
41-25.254667N 076-32.063500W
41.4209111,-76.5343917
(estimated)
Elevation: 2000 ft. / 610 m (estimated)
Variation: 12W (2000)
From city: 3 miles E of EAGLES MERE, PA
Time zone: UTC -4 (UTC -5 during Standard Time)
Zip code: 17731

Airport Operations

Airport use: Private use. Permission required prior to landing
Activation date: 07/2002
Control tower: no
ARTCC: NEW YORK CENTER
FSS: WILLIAMSPORT FLIGHT SERVICE STATION
Attendance: UNATNDD
Wind indicator: yes
Segmented circle: no

Airport Communications

WX AWOS-3 at N27 (20 nm N): 119.925 (570-265-1024)

Nearby radio navigation aids

VOR radial/distance  VOR name  Freq  Var
FQMr074/11.9WILLIAMSPORT VOR/DME114.4009W
MIPr023/24.6MILTON VORTAC109.2009W
LVZr293/39.1WILKES-BARRE VORTAC111.6010W

Airport Services

Runway Information

Runway 6/24

Dimensions: 3400 x 50 ft. / 1036 x 15 m
Surface: asphalt
RUNWAY 6  RUNWAY 24
Traffic pattern: leftleft

Runway 5/23

Dimensions: 3400 x 100 ft. / 1036 x 30 m
Surface: turf
RUNWAY 5  RUNWAY 23
Traffic pattern: leftleft

Airport Ownership and Management from official FAA records

Ownership: Privately-owned
Owner: GEORGE MERRITT JENKINS
467 BELROSE LANE
ST DAVIDS, PA 19087
Phone 610-688-7923
Manager: GEORGE MERRITT JENKINS
467 BELROSE LANE
ST DAVIDS, PA 19087
Phone 610-688-7923

Airport Operational Statistics

Aircraft based on the field: 30
Single engine airplanes: 30
    

Additional Remarks

FOR CD CTC NEW YORK ARTCC AT 631-468-1425.

Instrument Procedures

There are no published instrument procedures at 4PN7.

Some nearby airports with instrument procedures:

N27 - Bradford County Airport (20 nm N)
KIPT - Williamsport Regional Airport (21 nm SW)
N13 - Bloomsburg Municipal Airport (26 nm S)
8N8 - Danville Airport (29 nm S)
KWBW - Wilkes-Barre Wyoming Valley Airport (32 nm E)
 
Loc | Ops | Rwys | IFR | FBO | Links
Com | Nav | Svcs | Stats | Notes
Area around 4PN7 (Merritt Field Airport)
 
Road maps at: MapQuest Bing Google
 
Aerial photo
WARNING: Photo may not be current or correct
Aerial photo of 4PN7 (Merritt Field Airport)
Photo by Tal Reichert
Photo taken 25-Jul-2012
looking southwest.

Do you have a better or more recent aerial photo of Merritt Field Airport that you would like to share? If so, please send us your photo.

 
Sectional chart

 
Airport distance calculator
Flying to Merritt Field Airport? Find the distance to fly.

From to 4PN7

Sunrise and sunset
Times for 15-Aug-2020
 Local
(UTC-4)
 Zulu
(UTC)
Morning civil twilight05:4709:47
Sunrise06:1710:17
Sunset20:0400:04
Evening civil twilight20:3300:33

Current date and time
Zulu (UTC)  15-Aug-2020 09:17:33
Local (UTC-4)  15-Aug-2020 05:17:33
 
METAR
KIPT 
20nm SW 
150854Z AUTO 00000KT 10SM CLR 18/16 A3000 RMK AO2 SLP153 T01780156 55003
KHZL 
36nm SE 
150855Z AUTO 00000KT 7SM CLR 15/15 A3007 RMK AO2
KAVP 
36nm E 
150854Z 10005KT 10SM CLR 19/16 A3003 RMK AO2 SLP160 T01890161 53002
KSEG 
39nm SW 
150853Z AUTO 00000KT 7SM CLR 18/17 A3000 RMK AO2 SLP157 T01830172 58002
TAF
KIPT 
20nm SW 
150526Z 1506/1606 00000KT P6SM FEW250 FM150900 00000KT 6SM HZ BKN100 FM151300 12004KT P6SM BKN100
NOTAMs
Click for the latest NOTAMs
NOTAMs are issued by the DoD/FAA and will open in a separate window not controlled by AirNav.

 

 
 

Would you like to see your business listed on this page?

 If your business provides an interesting product or service to pilots, flight crews, aircraft, or users of the Merritt Field Airport, you should consider listing it here.  To start the listing process, click on the button below
 
Add a business
 

Other Pages about Merritt Field Airport

Update a link
 
Copyright © AirNav, LLC. All rights reserved. Privacy Policy  Contact